sensor_id;sensor_type;location;lat;lon;timestamp;pressure;altitude;pressure_sealevel;temperature;humidity
35655;BME280;21773;50.010;19.972;2022-08-19T00:01:37;98257.16;;;28.67;49.33
35655;BME280;21773;50.010;19.972;2022-08-19T00:04:42;98270.94;;;28.63;48.98
35655;BME280;21773;50.010;19.972;2022-08-19T00:07:49;98260.19;;;28.62;48.89
35655;BME280;21773;50.010;19.972;2022-08-19T00:10:52;98242.81;;;28.49;48.94
35655;BME280;21773;50.010;19.972;2022-08-19T00:13:56;98266.88;;;28.61;49.38
35655;BME280;21773;50.010;19.972;2022-08-19T00:17:00;98266.47;;;28.59;49.50
35655;BME280;21773;50.010;19.972;2022-08-19T00:20:08;98261.59;;;28.56;49.10
35655;BME280;21773;50.010;19.972;2022-08-19T00:23:12;98265.91;;;28.53;49.59
35655;BME280;21773;50.010;19.972;2022-08-19T00:26:16;98268.56;;;28.50;49.33
35655;BME280;21773;50.010;19.972;2022-08-19T00:29:21;98264.06;;;28.45;49.34
35655;BME280;21773;50.010;19.972;2022-08-19T00:32:25;98261.94;;;28.38;49.74
35655;BME280;21773;50.010;19.972;2022-08-19T00:35:31;98260.22;;;28.34;49.68
35655;BME280;21773;50.010;19.972;2022-08-19T00:38:36;98256.53;;;28.30;50.04
35655;BME280;21773;50.010;19.972;2022-08-19T00:41:40;98260.81;;;28.27;49.83
35655;BME280;21773;50.010;19.972;2022-08-19T00:44:43;98256.00;;;28.24;50.20
35655;BME280;21773;50.010;19.972;2022-08-19T00:47:47;98258.19;;;28.19;50.50
35655;BME280;21773;50.010;19.972;2022-08-19T00:50:53;98263.28;;;28.17;50.22
35655;BME280;21773;50.010;19.972;2022-08-19T00:53:59;98260.06;;;28.15;50.28
35655;BME280;21773;50.010;19.972;2022-08-19T00:57:05;98257.63;;;28.13;50.40
35655;BME280;21773;50.010;19.972;2022-08-19T01:00:13;98249.66;;;28.12;50.15
35655;BME280;21773;50.010;19.972;2022-08-19T01:03:19;98239.63;;;28.07;50.36
35655;BME280;21773;50.010;19.972;2022-08-19T01:06:24;98239.19;;;28.05;50.56
35655;BME280;21773;50.010;19.972;2022-08-19T01:09:28;98219.72;;;27.89;50.67
35655;BME280;21773;50.010;19.972;2022-08-19T01:12:32;98224.88;;;27.91;50.91
35655;BME280;21773;50.010;19.972;2022-08-19T01:15:42;98239.75;;;27.98;51.21
35655;BME280;21773;50.010;19.972;2022-08-19T01:18:46;98233.06;;;27.99;50.90
35655;BME280;21773;50.010;19.972;2022-08-19T01:21:56;98231.44;;;27.98;51.10
35655;BME280;21773;50.010;19.972;2022-08-19T01:25:27;98227.41;;;27.96;50.73
35655;BME280;21773;50.010;19.972;2022-08-19T01:28:31;98226.16;;;27.93;51.02
35655;BME280;21773;50.010;19.972;2022-08-19T01:31:43;98217.38;;;27.91;50.98
35655;BME280;21773;50.010;19.972;2022-08-19T01:34:46;98220.53;;;27.90;50.64
35655;BME280;21773;50.010;19.972;2022-08-19T01:37:51;98201.47;;;27.88;50.89
35655;BME280;21773;50.010;19.972;2022-08-19T01:40:57;98209.44;;;27.90;51.12
35655;BME280;21773;50.010;19.972;2022-08-19T01:44:03;98204.72;;;27.90;50.97
35655;BME280;21773;50.010;19.972;2022-08-19T01:47:20;98219.34;;;27.91;51.06
35655;BME280;21773;50.010;19.972;2022-08-19T01:50:23;98224.44;;;27.89;50.75
35655;BME280;21773;50.010;19.972;2022-08-19T01:53:27;98225.50;;;27.84;51.36
35655;BME280;21773;50.010;19.972;2022-08-19T01:56:36;98198.88;;;27.68;51.29
35655;BME280;21773;50.010;19.972;2022-08-19T01:59:41;98189.66;;;27.64;51.26
35655;BME280;21773;50.010;19.972;2022-08-19T02:02:45;98223.78;;;27.80;51.05
35655;BME280;21773;50.010;19.972;2022-08-19T02:05:54;98220.53;;;27.78;51.04
35655;BME280;21773;50.010;19.972;2022-08-19T02:08:58;98216.28;;;27.80;51.14
35655;BME280;21773;50.010;19.972;2022-08-19T02:12:04;98217.44;;;27.79;50.93
35655;BME280;21773;50.010;19.972;2022-08-19T02:15:09;98222.06;;;27.75;51.26
35655;BME280;21773;50.010;19.972;2022-08-19T02:18:13;98212.47;;;27.73;51.37
35655;BME280;21773;50.010;19.972;2022-08-19T02:21:18;98204.16;;;27.73;51.55
35655;BME280;21773;50.010;19.972;2022-08-19T02:24:22;98205.78;;;27.74;51.33
35655;BME280;21773;50.010;19.972;2022-08-19T02:27:27;98201.41;;;27.73;51.27
35655;BME280;21773;50.010;19.972;2022-08-19T02:30:31;98197.00;;;27.72;51.46
35655;BME280;21773;50.010;19.972;2022-08-19T02:33:35;98198.97;;;27.71;51.48
35655;BME280;21773;50.010;19.972;2022-08-19T02:36:38;98194.16;;;27.68;51.60
35655;BME280;21773;50.010;19.972;2022-08-19T02:39:43;98209.97;;;27.68;51.49
35655;BME280;21773;50.010;19.972;2022-08-19T02:42:47;98205.81;;;27.62;51.35
35655;BME280;21773;50.010;19.972;2022-08-19T02:45:51;98215.97;;;27.57;51.56
35655;BME280;21773;50.010;19.972;2022-08-19T02:48:57;98205.63;;;27.54;51.61
35655;BME280;21773;50.010;19.972;2022-08-19T02:52:01;98204.00;;;27.53;52.01
35655;BME280;21773;50.010;19.972;2022-08-19T02:55:06;98204.69;;;27.50;51.96
35655;BME280;21773;50.010;19.972;2022-08-19T02:58:12;98198.78;;;27.52;52.11
35655;BME280;21773;50.010;19.972;2022-08-19T03:01:20;98213.34;;;27.49;51.72
35655;BME280;21773;50.010;19.972;2022-08-19T03:04:23;98217.59;;;27.46;52.05
35655;BME280;21773;50.010;19.972;2022-08-19T03:07:27;98213.56;;;27.44;51.79
35655;BME280;21773;50.010;19.972;2022-08-19T03:10:30;98216.56;;;27.39;52.19
35655;BME280;21773;50.010;19.972;2022-08-19T03:13:35;98222.44;;;27.37;52.12
35655;BME280;21773;50.010;19.972;2022-08-19T03:16:42;98227.53;;;27.35;52.31
35655;BME280;21773;50.010;19.972;2022-08-19T03:19:46;98227.97;;;27.37;51.92
35655;BME280;21773;50.010;19.972;2022-08-19T03:22:49;98227.97;;;27.37;52.10
35655;BME280;21773;50.010;19.972;2022-08-19T03:25:53;98218.19;;;27.40;52.21
35655;BME280;21773;50.010;19.972;2022-08-19T03:29:18;98230.06;;;27.40;52.24
35655;BME280;21773;50.010;19.972;2022-08-19T03:32:31;98220.94;;;27.40;52.41
35655;BME280;21773;50.010;19.972;2022-08-19T03:35:35;98220.59;;;27.41;52.16
35655;BME280;21773;50.010;19.972;2022-08-19T03:38:42;98224.16;;;27.42;52.37
35655;BME280;21773;50.010;19.972;2022-08-19T03:41:47;98221.06;;;27.43;51.79
35655;BME280;21773;50.010;19.972;2022-08-19T03:45:13;98231.44;;;27.46;52.35
35655;BME280;21773;50.010;19.972;2022-08-19T03:48:16;98241.03;;;27.49;51.97
35655;BME280;21773;50.010;19.972;2022-08-19T03:51:22;98235.50;;;27.49;52.29
35655;BME280;21773;50.010;19.972;2022-08-19T03:54:32;98243.31;;;27.47;52.44
35655;BME280;21773;50.010;19.972;2022-08-19T03:57:36;98232.38;;;27.50;51.93
35655;BME280;21773;50.010;19.972;2022-08-19T04:00:43;98236.03;;;27.42;51.93
35655;BME280;21773;50.010;19.972;2022-08-19T04:03:47;98233.19;;;27.51;51.63
35655;BME280;21773;50.010;19.972;2022-08-19T04:06:51;98228.44;;;27.51;51.85
35655;BME280;21773;50.010;19.972;2022-08-19T04:09:55;98212.75;;;27.43;52.29
35655;BME280;21773;50.010;19.972;2022-08-19T04:12:58;98228.44;;;27.51;52.10
35655;BME280;21773;50.010;19.972;2022-08-19T04:16:03;98222.91;;;27.51;52.10
35655;BME280;21773;50.010;19.972;2022-08-19T04:19:07;98228.44;;;27.51;52.21
35655;BME280;21773;50.010;19.972;2022-08-19T04:22:10;98231.34;;;27.55;51.90
35655;BME280;21773;50.010;19.972;2022-08-19T04:25:14;98242.75;;;27.53;51.92
35655;BME280;21773;50.010;19.972;2022-08-19T04:28:17;98240.78;;;27.54;52.15
35655;BME280;21773;50.010;19.972;2022-08-19T04:31:24;98231.44;;;27.46;51.91
35655;BME280;21773;50.010;19.972;2022-08-19T04:34:29;98228.09;;;27.53;52.31
35655;BME280;21773;50.010;19.972;2022-08-19T04:37:33;98233.63;;;27.53;52.12
35655;BME280;21773;50.010;19.972;2022-08-19T04:40:40;98238.84;;;27.54;52.05
35655;BME280;21773;50.010;19.972;2022-08-19T04:44:01;98234.91;;;27.55;51.66
35655;BME280;21773;50.010;19.972;2022-08-19T04:47:06;98251.16;;;27.57;52.16
35655;BME280;21773;50.010;19.972;2022-08-19T04:50:12;98242.19;;;27.60;51.86
35655;BME280;21773;50.010;19.972;2022-08-19T04:53:18;98251.16;;;27.69;51.89
35655;BME280;21773;50.010;19.972;2022-08-19T04:56:22;98260.22;;;27.82;52.04
35655;BME280;21773;50.010;19.972;2022-08-19T04:59:28;98263.78;;;27.94;51.93
35655;BME280;21773;50.010;19.972;2022-08-19T05:02:33;98275.63;;;28.07;51.42
35655;BME280;21773;50.010;19.972;2022-08-19T05:05:39;98282.00;;;28.20;51.33
35655;BME280;21773;50.010;19.972;2022-08-19T05:08:47;98284.72;;;28.32;51.36
35655;BME280;21773;50.010;19.972;2022-08-19T05:11:51;98289.03;;;28.45;50.84
35655;BME280;21773;50.010;19.972;2022-08-19T05:14:55;98287.84;;;28.58;50.40
35655;BME280;21773;50.010;19.972;2022-08-19T05:18:00;98270.22;;;28.66;50.54
35655;BME280;21773;50.010;19.972;2022-08-19T05:21:22;98288.53;;;28.83;49.92
35655;BME280;21773;50.010;19.972;2022-08-19T05:24:57;98290.88;;;28.97;49.68
35655;BME280;21773;50.010;19.972;2022-08-19T05:28:14;98292.03;;;29.11;49.38
35655;BME280;21773;50.010;19.972;2022-08-19T05:31:17;98296.25;;;29.21;49.03
35655;BME280;21773;50.010;19.972;2022-08-19T05:34:24;98303.69;;;29.33;48.34
35655;BME280;21773;50.010;19.972;2022-08-19T05:37:27;98298.41;;;29.43;48.04
35655;BME280;21773;50.010;19.972;2022-08-19T05:40:31;98296.78;;;29.58;47.92
35655;BME280;21773;50.010;19.972;2022-08-19T05:43:37;98289.94;;;29.71;48.02
35655;BME280;21773;50.010;19.972;2022-08-19T05:46:42;98295.38;;;29.83;47.66
35655;BME280;21773;50.010;19.972;2022-08-19T05:49:50;98294.38;;;29.91;47.33
35655;BME280;21773;50.010;19.972;2022-08-19T05:52:53;98289.75;;;29.95;46.45
35655;BME280;21773;50.010;19.972;2022-08-19T05:55:57;98288.19;;;29.98;46.71
35655;BME280;21773;50.010;19.972;2022-08-19T05:59:01;98284.38;;;30.06;46.52
35655;BME280;21773;50.010;19.972;2022-08-19T06:02:05;98289.38;;;30.16;46.60
35655;BME280;21773;50.010;19.972;2022-08-19T06:05:11;98287.63;;;30.27;46.14
35655;BME280;21773;50.010;19.972;2022-08-19T06:08:15;98290.63;;;30.38;46.24
35655;BME280;21773;50.010;19.972;2022-08-19T06:11:22;98291.94;;;30.44;45.64
35655;BME280;21773;50.010;19.972;2022-08-19T06:14:29;98293.72;;;30.52;46.13
35655;BME280;21773;50.010;19.972;2022-08-19T06:17:34;98274.69;;;30.54;46.13
35655;BME280;21773;50.010;19.972;2022-08-19T06:20:39;98288.28;;;30.78;45.54
35655;BME280;21773;50.010;19.972;2022-08-19T06:23:57;98292.84;;;30.90;45.06
35655;BME280;21773;50.010;19.972;2022-08-19T06:27:01;98291.53;;;31.03;45.13
35655;BME280;21773;50.010;19.972;2022-08-19T06:30:08;98305.75;;;31.21;44.79
35655;BME280;21773;50.010;19.972;2022-08-19T06:33:12;98304.06;;;31.39;44.93
35655;BME280;21773;50.010;19.972;2022-08-19T06:36:20;98304.41;;;31.57;44.36
35655;BME280;21773;50.010;19.972;2022-08-19T06:39:30;98305.47;;;31.75;44.34
35655;BME280;21773;50.010;19.972;2022-08-19T06:42:34;98302.94;;;31.93;43.82
35655;BME280;21773;50.010;19.972;2022-08-19T06:45:45;98312.75;;;32.09;42.81
35655;BME280;21773;50.010;19.972;2022-08-19T06:48:50;98307.00;;;32.25;42.75
35655;BME280;21773;50.010;19.972;2022-08-19T06:51:57;98315.56;;;32.39;42.06
35655;BME280;21773;50.010;19.972;2022-08-19T06:55:03;98318.47;;;32.50;42.09
35655;BME280;21773;50.010;19.972;2022-08-19T06:58:07;98323.47;;;32.67;42.29
35655;BME280;21773;50.010;19.972;2022-08-19T07:01:11;98330.47;;;32.84;40.93
35655;BME280;21773;50.010;19.972;2022-08-19T07:04:16;98340.97;;;32.97;41.39
35655;BME280;21773;50.010;19.972;2022-08-19T07:07:21;98337.16;;;33.13;40.64
35655;BME280;21773;50.010;19.972;2022-08-19T07:10:24;98344.09;;;33.29;40.59
35655;BME280;21773;50.010;19.972;2022-08-19T07:13:28;98346.25;;;33.46;39.74
35655;BME280;21773;50.010;19.972;2022-08-19T07:16:31;98340.41;;;33.62;40.01
35655;BME280;21773;50.010;19.972;2022-08-19T07:19:36;98343.72;;;33.75;39.01
35655;BME280;21773;50.010;19.972;2022-08-19T07:22:41;98341.03;;;33.89;39.21
35655;BME280;21773;50.010;19.972;2022-08-19T07:25:45;98344.34;;;34.05;39.44
35655;BME280;21773;50.010;19.972;2022-08-19T07:28:54;98333.25;;;34.19;39.35
35655;BME280;21773;50.010;19.972;2022-08-19T07:31:58;98336.94;;;34.34;39.43
35655;BME280;21773;50.010;19.972;2022-08-19T07:35:02;98338.97;;;34.51;39.41
35655;BME280;21773;50.010;19.972;2022-08-19T07:38:09;98341.50;;;34.70;38.76
35655;BME280;21773;50.010;19.972;2022-08-19T07:41:15;98339.16;;;34.90;38.17
35655;BME280;21773;50.010;19.972;2022-08-19T07:44:20;98341.59;;;35.06;37.92
35655;BME280;21773;50.010;19.972;2022-08-19T07:47:24;98344.84;;;35.26;38.03
35655;BME280;21773;50.010;19.972;2022-08-19T07:50:49;98346.47;;;35.51;37.32
35655;BME280;21773;50.010;19.972;2022-08-19T07:53:54;98350.50;;;35.75;37.07
35655;BME280;21773;50.010;19.972;2022-08-19T07:56:57;98350.47;;;36.00;37.39
35655;BME280;21773;50.010;19.972;2022-08-19T08:00:02;98354.06;;;36.25;36.27
35655;BME280;21773;50.010;19.972;2022-08-19T08:03:13;98363.63;;;36.49;36.53
35655;BME280;21773;50.010;19.972;2022-08-19T08:06:17;98356.34;;;36.69;35.45
35655;BME280;21773;50.010;19.972;2022-08-19T08:09:41;98335.06;;;36.72;35.94
35655;BME280;21773;50.010;19.972;2022-08-19T08:12:51;98368.59;;;37.11;35.54
35655;BME280;21773;50.010;19.972;2022-08-19T08:16:11;98366.03;;;37.30;34.70
35655;BME280;21773;50.010;19.972;2022-08-19T08:19:16;98378.00;;;37.45;34.61
35655;BME280;21773;50.010;19.972;2022-08-19T08:22:26;98375.09;;;37.63;34.41
35655;BME280;21773;50.010;19.972;2022-08-19T08:25:48;98369.25;;;37.84;33.59
35655;BME280;21773;50.010;19.972;2022-08-19T08:28:53;98372.72;;;38.06;34.09
35655;BME280;21773;50.010;19.972;2022-08-19T08:31:57;98373.72;;;38.23;33.01
35655;BME280;21773;50.010;19.972;2022-08-19T08:35:01;98381.25;;;38.36;32.81
35655;BME280;21773;50.010;19.972;2022-08-19T08:38:04;98379.88;;;38.51;32.99
35655;BME280;21773;50.010;19.972;2022-08-19T08:41:17;98382.09;;;38.67;33.62
35655;BME280;21773;50.010;19.972;2022-08-19T08:44:34;98374.00;;;38.73;32.69
35655;BME280;21773;50.010;19.972;2022-08-19T08:47:47;98360.50;;;38.87;32.42
35655;BME280;21773;50.010;19.972;2022-08-19T08:50:53;98371.56;;;39.05;32.01
35655;BME280;21773;50.010;19.972;2022-08-19T08:53:57;98370.72;;;39.08;31.75
35655;BME280;21773;50.010;19.972;2022-08-19T08:57:09;98371.00;;;39.17;31.72
35655;BME280;21773;50.010;19.972;2022-08-19T09:00:17;98364.34;;;39.31;32.13
35655;BME280;21773;50.010;19.972;2022-08-19T09:03:24;98366.13;;;39.48;31.56
35655;BME280;21773;50.010;19.972;2022-08-19T09:06:38;98360.19;;;39.66;31.06
35655;BME280;21773;50.010;19.972;2022-08-19T09:09:45;98366.34;;;39.84;30.93
35655;BME280;21773;50.010;19.972;2022-08-19T09:12:59;98368.91;;;39.98;31.32
35655;BME280;21773;50.010;19.972;2022-08-19T09:16:13;98368.22;;;40.14;30.50
35655;BME280;21773;50.010;19.972;2022-08-19T09:19:17;98372.91;;;40.24;30.41
35655;BME280;21773;50.010;19.972;2022-08-19T09:22:23;98366.63;;;40.36;29.62
35655;BME280;21773;50.010;19.972;2022-08-19T09:25:28;98354.69;;;40.48;30.06
35655;BME280;21773;50.010;19.972;2022-08-19T09:28:34;98357.28;;;40.59;29.51
35655;BME280;21773;50.010;19.972;2022-08-19T09:31:39;98355.88;;;40.71;30.20
35655;BME280;21773;50.010;19.972;2022-08-19T09:34:43;98348.31;;;40.84;29.48
35655;BME280;21773;50.010;19.972;2022-08-19T09:37:52;98350.91;;;40.94;28.96
35655;BME280;21773;50.010;19.972;2022-08-19T09:41:04;98346.28;;;41.04;29.49
35655;BME280;21773;50.010;19.972;2022-08-19T09:44:09;98348.13;;;41.10;29.03
35655;BME280;21773;50.010;19.972;2022-08-19T09:47:14;98345.53;;;41.20;28.79
35655;BME280;21773;50.010;19.972;2022-08-19T09:50:21;98335.53;;;41.31;28.56
35655;BME280;21773;50.010;19.972;2022-08-19T09:53:26;98332.00;;;41.43;28.59
35655;BME280;21773;50.010;19.972;2022-08-19T09:56:32;98327.88;;;41.48;28.39
35655;BME280;21773;50.010;19.972;2022-08-19T09:59:38;98337.25;;;41.61;27.78
35655;BME280;21773;50.010;19.972;2022-08-19T10:02:42;98333.19;;;41.62;27.77
35655;BME280;21773;50.010;19.972;2022-08-19T10:05:46;98330.63;;;41.68;27.05
35655;BME280;21773;50.010;19.972;2022-08-19T10:08:56;98327.50;;;41.78;28.02
35655;BME280;21773;50.010;19.972;2022-08-19T10:12:00;98326.19;;;41.83;27.75
35655;BME280;21773;50.010;19.972;2022-08-19T10:15:06;98324.91;;;41.84;27.23
35655;BME280;21773;50.010;19.972;2022-08-19T10:18:10;98316.38;;;41.87;27.77
35655;BME280;21773;50.010;19.972;2022-08-19T10:21:16;98321.13;;;42.07;27.61
35655;BME280;21773;50.010;19.972;2022-08-19T10:24:20;98321.25;;;42.16;27.27
35655;BME280;21773;50.010;19.972;2022-08-19T10:27:26;98313.31;;;42.27;26.67
35655;BME280;21773;50.010;19.972;2022-08-19T10:30:35;98311.16;;;42.31;26.16
35655;BME280;21773;50.010;19.972;2022-08-19T10:33:40;98319.75;;;42.27;25.16
35655;BME280;21773;50.010;19.972;2022-08-19T10:36:56;98310.25;;;42.34;25.81
35655;BME280;21773;50.010;19.972;2022-08-19T10:40:03;98318.75;;;42.34;24.55
35655;BME280;21773;50.010;19.972;2022-08-19T10:43:07;98315.13;;;42.33;25.39
35655;BME280;21773;50.010;19.972;2022-08-19T10:46:14;98327.75;;;42.45;25.16
35655;BME280;21773;50.010;19.972;2022-08-19T10:49:18;98331.75;;;42.60;25.34
35655;BME280;21773;50.010;19.972;2022-08-19T10:52:23;98312.94;;;42.66;24.97
35655;BME280;21773;50.010;19.972;2022-08-19T10:55:39;98319.78;;;42.82;25.02
35655;BME280;21773;50.010;19.972;2022-08-19T10:59:00;98323.66;;;42.88;24.54
35655;BME280;21773;50.010;19.972;2022-08-19T11:02:08;98325.94;;;42.93;24.69
35655;BME280;21773;50.010;19.972;2022-08-19T11:05:13;98326.72;;;42.93;24.27
35655;BME280;21773;50.010;19.972;2022-08-19T11:08:17;98321.84;;;42.81;24.46
35655;BME280;21773;50.010;19.972;2022-08-19T11:11:25;98314.47;;;42.71;24.94
35655;BME280;21773;50.010;19.972;2022-08-19T11:14:28;98302.84;;;42.65;24.87
35655;BME280;21773;50.010;19.972;2022-08-19T11:17:36;98309.88;;;42.61;25.12
35655;BME280;21773;50.010;19.972;2022-08-19T11:20:42;98298.44;;;42.64;24.81
35655;BME280;21773;50.010;19.972;2022-08-19T11:23:47;98299.13;;;42.68;24.17
35655;BME280;21773;50.010;19.972;2022-08-19T11:26:53;98295.22;;;42.62;25.22
35655;BME280;21773;50.010;19.972;2022-08-19T11:29:58;98297.94;;;42.53;23.67
35655;BME280;21773;50.010;19.972;2022-08-19T11:33:03;98291.00;;;42.42;24.20
35655;BME280;21773;50.010;19.972;2022-08-19T11:36:08;98286.09;;;42.29;23.29
35655;BME280;21773;50.010;19.972;2022-08-19T11:39:19;98277.31;;;42.24;24.49
35655;BME280;21773;50.010;19.972;2022-08-19T11:42:23;98282.13;;;42.27;24.93
35655;BME280;21773;50.010;19.972;2022-08-19T11:45:40;98281.06;;;42.21;24.06
35655;BME280;21773;50.010;19.972;2022-08-19T11:48:44;98270.47;;;42.09;24.36
35655;BME280;21773;50.010;19.972;2022-08-19T11:51:48;98278.81;;;42.00;25.35
35655;BME280;21773;50.010;19.972;2022-08-19T11:54:54;98271.00;;;42.04;25.51
35655;BME280;21773;50.010;19.972;2022-08-19T11:57:58;98273.25;;;41.96;24.46
35655;BME280;21773;50.010;19.972;2022-08-19T12:01:05;98278.06;;;41.83;24.85
35655;BME280;21773;50.010;19.972;2022-08-19T12:04:10;98280.63;;;41.77;25.15
35655;BME280;21773;50.010;19.972;2022-08-19T12:07:14;98281.59;;;41.87;25.62
35655;BME280;21773;50.010;19.972;2022-08-19T12:10:17;98293.34;;;42.02;25.96
35655;BME280;21773;50.010;19.972;2022-08-19T12:13:27;98284.09;;;42.14;25.28
35655;BME280;21773;50.010;19.972;2022-08-19T12:16:31;98282.94;;;42.11;26.17
35655;BME280;21773;50.010;19.972;2022-08-19T12:19:39;98269.09;;;42.01;24.48
35655;BME280;21773;50.010;19.972;2022-08-19T12:22:43;98268.50;;;41.77;24.46
35655;BME280;21773;50.010;19.972;2022-08-19T12:25:47;98278.88;;;41.67;24.91
35655;BME280;21773;50.010;19.972;2022-08-19T12:28:54;98279.94;;;41.57;24.28
35655;BME280;21773;50.010;19.972;2022-08-19T12:31:58;98278.97;;;41.47;25.20
35655;BME280;21773;50.010;19.972;2022-08-19T12:35:07;98285.50;;;41.28;23.89
35655;BME280;21773;50.010;19.972;2022-08-19T12:38:13;98266.38;;;41.16;25.02
35655;BME280;21773;50.010;19.972;2022-08-19T12:41:18;98262.97;;;41.08;24.02
35655;BME280;21773;50.010;19.972;2022-08-19T12:44:24;98260.84;;;41.13;25.59
35655;BME280;21773;50.010;19.972;2022-08-19T12:47:29;98259.78;;;41.23;24.82
35655;BME280;21773;50.010;19.972;2022-08-19T12:50:35;98257.66;;;41.27;24.44
35655;BME280;21773;50.010;19.972;2022-08-19T12:53:39;98251.81;;;41.34;24.04
35655;BME280;21773;50.010;19.972;2022-08-19T12:56:42;98257.25;;;41.44;24.14
35655;BME280;21773;50.010;19.972;2022-08-19T12:59:46;98252.34;;;41.45;24.34
35655;BME280;21773;50.010;19.972;2022-08-19T13:02:52;98229.56;;;41.20;24.71
35655;BME280;21773;50.010;19.972;2022-08-19T13:05:57;98255.88;;;41.33;25.05
35655;BME280;21773;50.010;19.972;2022-08-19T13:09:00;98252.97;;;41.36;25.25
35655;BME280;21773;50.010;19.972;2022-08-19T13:12:04;98256.06;;;41.42;24.64
35655;BME280;21773;50.010;19.972;2022-08-19T13:15:10;98257.16;;;41.48;24.49
35655;BME280;21773;50.010;19.972;2022-08-19T13:18:16;98256.16;;;41.55;24.80
35655;BME280;21773;50.010;19.972;2022-08-19T13:21:23;98244.28;;;41.60;24.57
35655;BME280;21773;50.010;19.972;2022-08-19T13:24:27;98248.44;;;41.55;23.04
35655;BME280;21773;50.010;19.972;2022-08-19T13:27:35;98247.59;;;41.58;24.46
35655;BME280;21773;50.010;19.972;2022-08-19T13:30:39;98238.84;;;41.53;22.93
35655;BME280;21773;50.010;19.972;2022-08-19T13:33:59;98237.59;;;41.54;23.44
35655;BME280;21773;50.010;19.972;2022-08-19T13:37:05;98247.50;;;41.45;22.72
35655;BME280;21773;50.010;19.972;2022-08-19T13:40:13;98214.34;;;41.14;22.24
35655;BME280;21773;50.010;19.972;2022-08-19T13:43:22;98234.84;;;41.18;22.44
35655;BME280;21773;50.010;19.972;2022-08-19T13:46:26;98228.75;;;41.03;22.07
35655;BME280;21773;50.010;19.972;2022-08-19T13:49:32;98222.47;;;40.95;23.80
35655;BME280;21773;50.010;19.972;2022-08-19T13:52:38;98226.31;;;41.01;23.67
35655;BME280;21773;50.010;19.972;2022-08-19T13:55:43;98202.47;;;40.86;24.46
35655;BME280;21773;50.010;19.972;2022-08-19T13:58:46;98209.97;;;40.93;23.96
35655;BME280;21773;50.010;19.972;2022-08-19T14:01:49;98222.09;;;40.93;24.46
35655;BME280;21773;50.010;19.972;2022-08-19T14:04:53;98205.13;;;40.93;24.76
35655;BME280;21773;50.010;19.972;2022-08-19T14:07:59;98206.25;;;40.96;23.87
35655;BME280;21773;50.010;19.972;2022-08-19T14:11:02;98204.59;;;40.98;23.97
35655;BME280;21773;50.010;19.972;2022-08-19T14:14:07;98208.75;;;40.94;24.21
35655;BME280;21773;50.010;19.972;2022-08-19T14:17:17;98206.78;;;40.91;23.03
35655;BME280;21773;50.010;19.972;2022-08-19T14:20:21;98201.75;;;40.82;23.93
35655;BME280;21773;50.010;19.972;2022-08-19T14:23:28;98197.66;;;40.67;23.80
35655;BME280;21773;50.010;19.972;2022-08-19T14:26:32;98199.94;;;40.56;24.27
35655;BME280;21773;50.010;19.972;2022-08-19T14:29:35;98191.78;;;40.42;24.42
35655;BME280;21773;50.010;19.972;2022-08-19T14:32:39;98188.69;;;40.36;24.57
35655;BME280;21773;50.010;19.972;2022-08-19T14:35:45;98181.44;;;40.15;24.32
35655;BME280;21773;50.010;19.972;2022-08-19T14:38:49;98195.69;;;40.08;24.34
35655;BME280;21773;50.010;19.972;2022-08-19T14:41:53;98192.53;;;40.06;24.19
35655;BME280;21773;50.010;19.972;2022-08-19T14:44:57;98197.09;;;40.00;24.01
35655;BME280;21773;50.010;19.972;2022-08-19T14:48:01;98198.38;;;39.96;24.08
35655;BME280;21773;50.010;19.972;2022-08-19T14:51:05;98211.00;;;39.91;24.14
35655;BME280;21773;50.010;19.972;2022-08-19T14:54:10;98204.31;;;39.81;24.69
35655;BME280;21773;50.010;19.972;2022-08-19T14:57:14;98197.34;;;39.66;24.63
35655;BME280;21773;50.010;19.972;2022-08-19T15:00:17;98200.34;;;39.56;24.94
35655;BME280;21773;50.010;19.972;2022-08-19T15:03:21;98196.44;;;39.50;25.38
35655;BME280;21773;50.010;19.972;2022-08-19T15:06:24;98189.75;;;39.40;25.45
35655;BME280;21773;50.010;19.972;2022-08-19T15:09:30;98175.16;;;39.22;25.33
35655;BME280;21773;50.010;19.972;2022-08-19T15:12:33;98171.78;;;39.07;26.05
35655;BME280;21773;50.010;19.972;2022-08-19T15:15:37;98164.63;;;39.03;26.12
35655;BME280;21773;50.010;19.972;2022-08-19T15:18:41;98147.53;;;38.90;25.35
35655;BME280;21773;50.010;19.972;2022-08-19T15:21:46;98157.94;;;38.93;26.05
35655;BME280;21773;50.010;19.972;2022-08-19T15:24:50;98155.63;;;38.88;25.80
35655;BME280;21773;50.010;19.972;2022-08-19T15:27:57;98148.03;;;38.81;25.94
35655;BME280;21773;50.010;19.972;2022-08-19T15:31:02;98132.97;;;38.68;26.25
35655;BME280;21773;50.010;19.972;2022-08-19T15:34:06;98150.66;;;38.69;26.00
35655;BME280;21773;50.010;19.972;2022-08-19T15:37:10;98145.94;;;38.62;26.29
35655;BME280;21773;50.010;19.972;2022-08-19T15:40:15;98149.22;;;38.57;26.50
35655;BME280;21773;50.010;19.972;2022-08-19T15:43:19;98139.72;;;38.47;26.88
35655;BME280;21773;50.010;19.972;2022-08-19T15:46:25;98142.25;;;38.38;26.74
35655;BME280;21773;50.010;19.972;2022-08-19T15:49:32;98128.75;;;38.26;27.19
35655;BME280;21773;50.010;19.972;2022-08-19T15:52:35;98136.75;;;38.31;27.42
35655;BME280;21773;50.010;19.972;2022-08-19T15:55:50;98131.19;;;38.24;27.67
35655;BME280;21773;50.010;19.972;2022-08-19T15:58:53;98112.56;;;38.07;27.77
35655;BME280;21773;50.010;19.972;2022-08-19T16:02:15;98144.28;;;38.07;27.90
35655;BME280;21773;50.010;19.972;2022-08-19T16:05:38;98137.97;;;38.00;28.17
35655;BME280;21773;50.010;19.972;2022-08-19T16:09:02;98152.09;;;37.93;28.23
35655;BME280;21773;50.010;19.972;2022-08-19T16:12:07;98149.00;;;37.84;28.54
35655;BME280;21773;50.010;19.972;2022-08-19T16:15:12;98141.06;;;37.75;29.12